sensor_id;sensor_type;location;lat;lon;timestamp;pressure;altitude;pressure_sealevel;temperature;humidity
71889;BME280;59762;49.998;14.858;2022-10-14T00:01:04;97515.22;;;9.23;100.00
71889;BME280;59762;49.998;14.858;2022-10-14T00:03:35;97516.66;;;9.25;100.00
71889;BME280;59762;49.998;14.858;2022-10-14T00:06:06;97518.47;;;9.25;100.00
71889;BME280;59762;49.998;14.858;2022-10-14T00:08:32;97509.91;;;9.23;100.00
71889;BME280;59762;49.998;14.858;2022-10-14T00:11:06;97525.03;;;9.22;100.00
71889;BME280;59762;49.998;14.858;2022-10-14T00:13:33;97514.19;;;9.17;100.00
71889;BME280;59762;49.998;14.858;2022-10-14T00:15:59;97520.50;;;9.16;100.00
71889;BME280;59762;49.998;14.858;2022-10-14T00:18:25;97524.59;;;9.19;100.00
71889;BME280;59762;49.998;14.858;2022-10-14T00:20:55;97520.31;;;9.18;100.00
71889;BME280;59762;49.998;14.858;2022-10-14T00:23:21;97524.63;;;9.12;100.00
71889;BME280;59762;49.998;14.858;2022-10-14T00:25:47;97523.56;;;9.06;100.00
71889;BME280;59762;49.998;14.858;2022-10-14T00:28:13;97515.59;;;9.06;100.00
71889;BME280;59762;49.998;14.858;2022-10-14T00:30:38;97529.31;;;9.03;100.00
71889;BME280;59762;49.998;14.858;2022-10-14T00:33:04;97521.09;;;8.98;100.00
71889;BME280;59762;49.998;14.858;2022-10-14T00:35:29;97523.38;;;8.95;100.00
71889;BME280;59762;49.998;14.858;2022-10-14T00:37:57;97532.56;;;8.99;100.00
71889;BME280;59762;49.998;14.858;2022-10-14T00:40:24;97526.41;;;8.98;100.00
71889;BME280;59762;49.998;14.858;2022-10-14T00:42:50;97533.78;;;9.03;100.00
71889;BME280;59762;49.998;14.858;2022-10-14T00:45:20;97526.22;;;9.00;100.00
71889;BME280;59762;49.998;14.858;2022-10-14T00:47:47;97535.84;;;9.07;100.00
71889;BME280;59762;49.998;14.858;2022-10-14T00:50:15;97529.09;;;9.05;100.00
71889;BME280;59762;49.998;14.858;2022-10-14T00:52:42;97534.63;;;9.10;100.00
71889;BME280;59762;49.998;14.858;2022-10-14T00:55:17;97533.59;;;9.11;100.00
71889;BME280;59762;49.998;14.858;2022-10-14T00:57:43;97529.94;;;9.12;100.00
71889;BME280;59762;49.998;14.858;2022-10-14T01:00:12;97527.06;;;9.14;100.00
71889;BME280;59762;49.998;14.858;2022-10-14T01:02:39;97522.97;;;9.11;100.00
71889;BME280;59762;49.998;14.858;2022-10-14T01:05:08;97524.19;;;9.08;100.00
71889;BME280;59762;49.998;14.858;2022-10-14T01:23:57;97516.22;;;9.08;100.00
71889;BME280;59762;49.998;14.858;2022-10-14T01:29:53;97512.53;;;8.96;100.00
71889;BME280;59762;49.998;14.858;2022-10-14T01:32:25;97507.19;;;8.90;100.00
71889;BME280;59762;49.998;14.858;2022-10-14T01:35:00;97506.16;;;8.84;100.00
71889;BME280;59762;49.998;14.858;2022-10-14T01:37:29;97502.91;;;8.82;100.00
71889;BME280;59762;49.998;14.858;2022-10-14T01:40:03;97494.53;;;8.78;100.00
71889;BME280;59762;49.998;14.858;2022-10-14T01:42:34;97493.28;;;8.74;100.00
71889;BME280;59762;49.998;14.858;2022-10-14T01:45:10;97500.44;;;8.74;100.00
71889;BME280;59762;49.998;14.858;2022-10-14T01:47:38;97492.47;;;8.74;100.00
71889;BME280;59762;49.998;14.858;2022-10-14T01:50:11;97491.84;;;8.72;100.00
71889;BME280;59762;49.998;14.858;2022-10-14T01:52:45;97494.72;;;8.64;100.00
71889;BME280;59762;49.998;14.858;2022-10-14T01:55:22;97495.53;;;8.64;100.00
71889;BME280;59762;49.998;14.858;2022-10-14T01:57:51;97499.16;;;8.63;100.00
71889;BME280;59762;49.998;14.858;2022-10-14T02:00:19;97484.88;;;8.57;100.00
71889;BME280;59762;49.998;14.858;2022-10-14T02:02:44;97490.81;;;8.59;100.00
71889;BME280;59762;49.998;14.858;2022-10-14T02:07:43;97488.75;;;8.62;100.00
71889;BME280;59762;49.998;14.858;2022-10-14T02:10:26;97481.22;;;8.65;100.00
71889;BME280;59762;49.998;14.858;2022-10-14T02:16:29;97481.25;;;8.78;100.00
71889;BME280;59762;49.998;14.858;2022-10-14T02:18:53;97470.41;;;8.80;100.00
71889;BME280;59762;49.998;14.858;2022-10-14T02:24:08;97474.28;;;8.84;100.00
71889;BME280;59762;49.998;14.858;2022-10-14T02:26:35;97473.09;;;8.87;100.00
71889;BME280;59762;49.998;14.858;2022-10-14T02:29:02;97469.63;;;8.86;100.00
71889;BME280;59762;49.998;14.858;2022-10-14T02:31:30;97474.72;;;8.88;100.00
71889;BME280;59762;49.998;14.858;2022-10-14T02:33:59;97474.28;;;8.84;100.00
71889;BME280;59762;49.998;14.858;2022-10-14T02:36:27;97476.75;;;8.86;100.00
71889;BME280;59762;49.998;14.858;2022-10-14T02:38:56;97471.84;;;8.89;100.00
71889;BME280;59762;49.998;14.858;2022-10-14T02:41:27;97475.31;;;8.90;100.00
71889;BME280;59762;49.998;14.858;2022-10-14T02:43:55;97474.50;;;8.89;100.00
71889;BME280;59762;49.998;14.858;2022-10-14T02:46:21;97470.59;;;8.85;100.00
71889;BME280;59762;49.998;14.858;2022-10-14T02:48:48;97477.56;;;8.93;100.00
71889;BME280;59762;49.998;14.858;2022-10-14T02:51:14;97478.38;;;8.93;100.00
71889;BME280;59762;49.998;14.858;2022-10-14T02:53:40;97468.56;;;8.94;100.00
71889;BME280;59762;49.998;14.858;2022-10-14T02:56:06;97473.09;;;9.00;100.00
71889;BME280;59762;49.998;14.858;2022-10-14T02:58:32;97472.66;;;9.03;100.00
71889;BME280;59762;49.998;14.858;2022-10-14T03:00:57;97480.25;;;9.06;100.00
71889;BME280;59762;49.998;14.858;2022-10-14T03:03:23;97481.69;;;9.08;100.00
71889;BME280;59762;49.998;14.858;2022-10-14T03:05:48;97480.06;;;9.07;100.00
71889;BME280;59762;49.998;14.858;2022-10-14T03:08:14;97477.78;;;9.11;100.00
71889;BME280;59762;49.998;14.858;2022-10-14T03:10:40;97485.78;;;9.18;100.00
71889;BME280;59762;49.998;14.858;2022-10-14T03:13:05;97481.69;;;9.22;100.00
71889;BME280;59762;49.998;14.858;2022-10-14T03:15:31;97477.19;;;9.22;100.00
71889;BME280;59762;49.998;14.858;2022-10-14T03:17:57;97483.09;;;9.24;100.00
71889;BME280;59762;49.998;14.858;2022-10-14T03:20:22;97478.22;;;9.21;100.00
71889;BME280;59762;49.998;14.858;2022-10-14T03:22:48;97486.19;;;9.21;100.00
71889;BME280;59762;49.998;14.858;2022-10-14T03:25:14;97482.31;;;9.17;100.00
71889;BME280;59762;49.998;14.858;2022-10-14T03:27:39;97485.78;;;9.18;100.00
71889;BME280;59762;49.998;14.858;2022-10-14T03:30:05;97468.59;;;9.14;100.00
71889;BME280;59762;49.998;14.858;2022-10-14T03:32:31;97480.25;;;9.13;100.00
71889;BME280;59762;49.998;14.858;2022-10-14T03:34:57;97475.56;;;9.08;100.00
71889;BME280;59762;49.998;14.858;2022-10-14T03:37:22;97475.75;;;9.13;100.00
71889;BME280;59762;49.998;14.858;2022-10-14T03:39:48;97486.78;;;9.10;100.00
71889;BME280;59762;49.998;14.858;2022-10-14T03:42:14;97479.22;;;9.07;100.00
71889;BME280;59762;49.998;14.858;2022-10-14T03:44:39;97475.31;;;9.03;100.00
71889;BME280;59762;49.998;14.858;2022-10-14T03:47:05;97482.69;;;9.01;100.00
71889;BME280;59762;49.998;14.858;2022-10-14T03:49:30;97486.38;;;9.00;100.00
71889;BME280;59762;49.998;14.858;2022-10-14T03:51:56;97482.06;;;8.92;100.00
71889;BME280;59762;49.998;14.858;2022-10-14T03:54:22;97480.88;;;8.95;100.00
71889;BME280;59762;49.998;14.858;2022-10-14T03:56:47;97471.22;;;8.94;100.00
71889;BME280;59762;49.998;14.858;2022-10-14T03:59:13;97476.38;;;8.95;100.00
71889;BME280;59762;49.998;14.858;2022-10-14T04:01:38;97474.09;;;8.92;100.00
71889;BME280;59762;49.998;14.858;2022-10-14T04:04:04;97475.31;;;8.90;100.00
71889;BME280;59762;49.998;14.858;2022-10-14T04:06:29;97465.72;;;8.82;100.00
71889;BME280;59762;49.998;14.858;2022-10-14T04:08:55;97473.06;;;8.80;100.00
71889;BME280;59762;49.998;14.858;2022-10-14T04:11:21;97468.56;;;8.80;100.00
71889;BME280;59762;49.998;14.858;2022-10-14T04:13:46;97474.91;;;8.79;100.00
71889;BME280;59762;49.998;14.858;2022-10-14T04:16:12;97464.50;;;8.78;100.00
71889;BME280;59762;49.998;14.858;2022-10-14T04:18:38;97465.09;;;8.80;100.00
71889;BME280;59762;49.998;14.858;2022-10-14T04:21:12;97459.78;;;8.80;100.00
71889;BME280;59762;49.998;14.858;2022-10-14T04:23:38;97454.47;;;8.80;100.00
71889;BME280;59762;49.998;14.858;2022-10-14T04:26:06;97458.56;;;8.82;100.00
71889;BME280;59762;49.998;14.858;2022-10-14T04:28:33;97461.22;;;8.82;100.00
71889;BME280;59762;49.998;14.858;2022-10-14T04:30:59;97456.31;;;8.79;100.00
71889;BME280;59762;49.998;14.858;2022-10-14T04:33:25;97455.09;;;8.82;100.00
71889;BME280;59762;49.998;14.858;2022-10-14T04:35:57;97472.44;;;8.84;100.00
71889;BME280;59762;49.998;14.858;2022-10-14T04:38:23;97457.31;;;8.85;100.00
71889;BME280;59762;49.998;14.858;2022-10-14T04:40:48;97462.03;;;8.83;100.00
71889;BME280;59762;49.998;14.858;2022-10-14T04:43:14;97458.34;;;8.84;100.00
71889;BME280;59762;49.998;14.858;2022-10-14T04:45:40;97455.53;;;8.86;100.00
71889;BME280;59762;49.998;14.858;2022-10-14T04:48:06;97450.38;;;8.84;100.00
71889;BME280;59762;49.998;14.858;2022-10-14T04:50:31;97457.97;;;8.87;100.00
71889;BME280;59762;49.998;14.858;2022-10-14T04:52:57;97447.94;;;8.89;100.00
71889;BME280;59762;49.998;14.858;2022-10-14T04:55:23;97454.91;;;8.90;100.00
71889;BME280;59762;49.998;14.858;2022-10-14T04:57:48;97450.19;;;8.92;100.00
71889;BME280;59762;49.998;14.858;2022-10-14T05:00:14;97450.81;;;8.94;100.00
71889;BME280;59762;49.998;14.858;2022-10-14T05:02:40;97443.66;;;8.95;100.00
71889;BME280;59762;49.998;14.858;2022-10-14T05:05:06;97442.22;;;8.92;100.00
71889;BME280;59762;49.998;14.858;2022-10-14T05:07:32;97431.41;;;8.87;100.00
71889;BME280;59762;49.998;14.858;2022-10-14T05:09:58;97426.09;;;8.87;100.00
71889;BME280;59762;49.998;14.858;2022-10-14T05:12:23;97427.31;;;8.91;100.00
71889;BME280;59762;49.998;14.858;2022-10-14T05:14:49;97437.53;;;8.94;100.00
71889;BME280;59762;49.998;14.858;2022-10-14T05:17:15;97434.25;;;8.92;100.00
71889;BME280;59762;49.998;14.858;2022-10-14T05:19:40;97436.09;;;8.92;100.00
71889;BME280;59762;49.998;14.858;2022-10-14T05:22:06;97432.63;;;8.91;100.00
71889;BME280;59762;49.998;14.858;2022-10-14T05:24:31;97425.88;;;8.89;100.00
71889;BME280;59762;49.998;14.858;2022-10-14T05:26:57;97432.00;;;8.89;100.00
71889;BME280;59762;49.998;14.858;2022-10-14T05:29:23;97426.09;;;8.87;100.00
71889;BME280;59762;49.998;14.858;2022-10-14T05:31:48;97430.16;;;8.90;100.00
71889;BME280;59762;49.998;14.858;2022-10-14T05:34:14;97427.13;;;8.86;100.00
71889;BME280;59762;49.998;14.858;2022-10-14T05:36:40;97428.53;;;8.89;100.00
71889;BME280;59762;49.998;14.858;2022-10-14T05:39:08;97427.94;;;8.87;100.00
71889;BME280;59762;49.998;14.858;2022-10-14T05:41:36;97433.66;;;8.90;100.00
71889;BME280;59762;49.998;14.858;2022-10-14T05:44:02;97429.97;;;8.91;100.00
71889;BME280;59762;49.998;14.858;2022-10-14T05:46:28;97422.63;;;8.87;100.00
71889;BME280;59762;49.998;14.858;2022-10-14T05:48:55;97425.47;;;8.92;100.00
71889;BME280;59762;49.998;14.858;2022-10-14T05:51:21;97426.06;;;8.94;100.00
71889;BME280;59762;49.998;14.858;2022-10-14T05:53:47;97422.59;;;8.93;100.00
71889;BME280;59762;49.998;14.858;2022-10-14T05:56:13;97432.00;;;8.96;100.00
71889;BME280;59762;49.998;14.858;2022-10-14T05:58:39;97431.19;;;8.95;100.00
71889;BME280;59762;49.998;14.858;2022-10-14T06:01:07;97432.22;;;8.94;100.00
71889;BME280;59762;49.998;14.858;2022-10-14T06:03:34;97437.53;;;8.94;100.00
71889;BME280;59762;49.998;14.858;2022-10-14T06:06:00;97433.22;;;8.93;100.00
71889;BME280;59762;49.998;14.858;2022-10-14T06:08:26;97434.06;;;9.00;100.00
71889;BME280;59762;49.998;14.858;2022-10-14T06:10:52;97429.56;;;9.01;100.00
71889;BME280;59762;49.998;14.858;2022-10-14T06:13:19;97424.84;;;9.03;100.00
71889;BME280;59762;49.998;14.858;2022-10-14T06:15:44;97427.31;;;9.04;100.00
71889;BME280;59762;49.998;14.858;2022-10-14T06:18:10;97424.84;;;9.09;100.00
71889;BME280;59762;49.998;14.858;2022-10-14T06:20:36;97417.50;;;9.05;100.00
71889;BME280;59762;49.998;14.858;2022-10-14T06:23:02;97416.47;;;9.06;100.00
71889;BME280;59762;49.998;14.858;2022-10-14T06:25:28;97427.28;;;9.11;100.00
71889;BME280;59762;49.998;14.858;2022-10-14T06:27:54;97426.09;;;9.14;100.00
71889;BME280;59762;49.998;14.858;2022-10-14T06:30:20;97424.03;;;9.16;100.00
71889;BME280;59762;49.998;14.858;2022-10-14T06:32:46;97437.72;;;9.26;100.00
71889;BME280;59762;49.998;14.858;2022-10-14T06:35:12;97437.09;;;9.30;100.00
71889;BME280;59762;49.998;14.858;2022-10-14T06:37:37;97437.91;;;9.38;100.00
71889;BME280;59762;49.998;14.858;2022-10-14T06:40:03;97438.09;;;9.43;100.00
71889;BME280;59762;49.998;14.858;2022-10-14T06:42:30;97442.38;;;9.50;100.00
71889;BME280;59762;49.998;14.858;2022-10-14T06:44:55;97435.41;;;9.56;100.00
71889;BME280;59762;49.998;14.858;2022-10-14T06:47:21;97442.34;;;9.64;100.00
71889;BME280;59762;49.998;14.858;2022-10-14T06:49:46;97449.31;;;9.71;100.00
71889;BME280;59762;49.998;14.858;2022-10-14T06:52:12;97438.63;;;9.78;100.00
71889;BME280;59762;49.998;14.858;2022-10-14T06:54:37;97437.19;;;9.82;100.00
71889;BME280;59762;49.998;14.858;2022-10-14T06:57:03;97442.28;;;9.90;100.00
71889;BME280;59762;49.998;14.858;2022-10-14T06:59:29;97446.19;;;9.88;100.00
71889;BME280;59762;49.998;14.858;2022-10-14T07:01:54;97438.00;;;9.89;100.00
71889;BME280;59762;49.998;14.858;2022-10-14T07:04:20;97444.94;;;9.97;100.00
71889;BME280;59762;49.998;14.858;2022-10-14T07:06:46;97445.53;;;9.99;100.00
71889;BME280;59762;49.998;14.858;2022-10-14T07:09:12;97448.75;;;10.07;100.00
71889;BME280;59762;49.998;14.858;2022-10-14T07:11:37;97453.84;;;10.16;100.00
71889;BME280;59762;49.998;14.858;2022-10-14T07:14:03;97462.44;;;10.18;100.00
71889;BME280;59762;49.998;14.858;2022-10-14T07:16:28;97455.88;;;10.20;100.00
71889;BME280;59762;49.998;14.858;2022-10-14T07:18:54;97444.59;;;10.31;100.00
71889;BME280;59762;49.998;14.858;2022-10-14T07:21:20;97444.34;;;10.40;100.00
71889;BME280;59762;49.998;14.858;2022-10-14T07:23:45;97444.47;;;10.51;100.00
71889;BME280;59762;49.998;14.858;2022-10-14T07:26:11;97443.81;;;10.63;100.00
71889;BME280;59762;49.998;14.858;2022-10-14T07:28:37;97446.81;;;10.73;100.00
71889;BME280;59762;49.998;14.858;2022-10-14T07:31:07;97445.91;;;10.85;100.00
71889;BME280;59762;49.998;14.858;2022-10-14T07:33:35;97442.91;;;11.00;100.00
71889;BME280;59762;49.998;14.858;2022-10-14T07:36:05;97443.84;;;11.13;100.00
71889;BME280;59762;49.998;14.858;2022-10-14T07:38:31;97440.31;;;11.19;100.00
71889;BME280;59762;49.998;14.858;2022-10-14T07:41:02;97435.50;;;11.27;100.00
71889;BME280;59762;49.998;14.858;2022-10-14T07:43:29;97445.25;;;11.40;100.00
71889;BME280;59762;49.998;14.858;2022-10-14T07:45:59;97447.22;;;11.51;100.00
71889;BME280;59762;49.998;14.858;2022-10-14T07:48:32;97447.94;;;11.58;100.00
71889;BME280;59762;49.998;14.858;2022-10-14T07:50:58;97449.06;;;11.69;100.00
71889;BME280;59762;49.998;14.858;2022-10-14T07:53:24;97454.88;;;11.84;100.00
71889;BME280;59762;49.998;14.858;2022-10-14T07:55:50;97455.41;;;11.93;100.00
71889;BME280;59762;49.998;14.858;2022-10-14T07:58:27;97455.78;;;12.15;100.00
71889;BME280;59762;49.998;14.858;2022-10-14T08:00:53;97446.34;;;12.31;100.00
71889;BME280;59762;49.998;14.858;2022-10-14T08:03:21;97443.63;;;12.49;100.00
71889;BME280;59762;49.998;14.858;2022-10-14T08:05:47;97445.75;;;12.59;100.00
71889;BME280;59762;49.998;14.858;2022-10-14T08:08:16;97439.13;;;12.61;100.00
71889;BME280;59762;49.998;14.858;2022-10-14T08:10:42;97443.19;;;12.64;100.00
71889;BME280;59762;49.998;14.858;2022-10-14T08:13:08;97436.66;;;12.90;100.00
71889;BME280;59762;49.998;14.858;2022-10-14T08:15:35;97440.78;;;13.16;100.00
71889;BME280;59762;49.998;14.858;2022-10-14T08:18:04;97427.91;;;13.25;100.00
71889;BME280;59762;49.998;14.858;2022-10-14T08:20:30;97439.06;;;13.45;100.00
71889;BME280;59762;49.998;14.858;2022-10-14T08:22:58;97443.00;;;13.66;100.00
71889;BME280;59762;49.998;14.858;2022-10-14T08:25:24;97440.34;;;13.66;100.00
71889;BME280;59762;49.998;14.858;2022-10-14T08:27:49;97446.03;;;13.70;100.00
71889;BME280;59762;49.998;14.858;2022-10-14T08:30:16;97438.13;;;13.75;100.00
71889;BME280;59762;49.998;14.858;2022-10-14T08:32:42;97445.78;;;13.71;100.00
71889;BME280;59762;49.998;14.858;2022-10-14T08:35:09;97447.56;;;13.66;100.00
71889;BME280;59762;49.998;14.858;2022-10-14T08:37:35;97440.47;;;13.59;100.00
71889;BME280;59762;49.998;14.858;2022-10-14T08:40:04;97440.78;;;13.63;100.00
71889;BME280;59762;49.998;14.858;2022-10-14T08:42:53;97443.94;;;13.72;100.00
71889;BME280;59762;49.998;14.858;2022-10-14T08:45:38;97441.03;;;13.61;100.00
71889;BME280;59762;49.998;14.858;2022-10-14T08:48:15;97441.59;;;13.75;100.00
71889;BME280;59762;49.998;14.858;2022-10-14T08:53:22;97442.91;;;13.73;100.00
71889;BME280;59762;49.998;14.858;2022-10-14T08:55:57;97430.31;;;13.73;100.00
71889;BME280;59762;49.998;14.858;2022-10-14T08:58:35;97434.88;;;13.73;100.00
71889;BME280;59762;49.998;14.858;2022-10-14T09:01:33;97440.44;;;13.83;100.00
71889;BME280;59762;49.998;14.858;2022-10-14T09:04:03;97435.44;;;13.86;100.00
71889;BME280;59762;49.998;14.858;2022-10-14T09:06:32;97439.13;;;13.97;100.00
71889;BME280;59762;49.998;14.858;2022-10-14T09:11:44;97434.03;;;14.24;100.00
71889;BME280;59762;49.998;14.858;2022-10-14T09:14:19;97441.09;;;14.42;100.00
71889;BME280;59762;49.998;14.858;2022-10-14T09:16:49;97442.25;;;14.46;100.00
71889;BME280;59762;49.998;14.858;2022-10-14T09:19:36;97440.63;;;14.45;100.00
71889;BME280;59762;49.998;14.858;2022-10-14T09:22:10;97443.16;;;14.52;100.00
71889;BME280;59762;49.998;14.858;2022-10-14T09:24:37;97436.63;;;14.59;100.00
71889;BME280;59762;49.998;14.858;2022-10-14T09:27:05;97442.91;;;14.82;100.00
71889;BME280;59762;49.998;14.858;2022-10-14T09:34:57;97430.00;;;14.79;100.00
71889;BME280;59762;49.998;14.858;2022-10-14T09:37:34;97436.13;;;15.08;100.00
71889;BME280;59762;49.998;14.858;2022-10-14T09:43:08;97432.84;;;15.23;100.00
71889;BME280;59762;49.998;14.858;2022-10-14T09:45:59;97446.38;;;15.28;100.00
71889;BME280;59762;49.998;14.858;2022-10-14T09:51:09;97431.91;;;15.29;100.00
71889;BME280;59762;49.998;14.858;2022-10-14T09:53:47;97433.03;;;15.33;100.00
71889;BME280;59762;49.998;14.858;2022-10-14T09:56:14;97431.91;;;15.29;100.00
71889;BME280;59762;49.998;14.858;2022-10-14T09:58:50;97431.91;;;15.29;100.00
71889;BME280;59762;49.998;14.858;2022-10-14T10:01:27;97440.22;;;15.27;100.00
71889;BME280;59762;49.998;14.858;2022-10-14T10:03:54;97443.28;;;15.02;100.00
71889;BME280;59762;49.998;14.858;2022-10-14T10:06:22;97444.34;;;15.01;100.00
71889;BME280;59762;49.998;14.858;2022-10-14T10:16:40;97446.28;;;14.60;100.00
71889;BME280;59762;49.998;14.858;2022-10-14T10:19:20;97440.44;;;14.63;100.00
71889;BME280;59762;49.998;14.858;2022-10-14T10:21:51;97438.38;;;14.82;100.00
71889;BME280;59762;49.998;14.858;2022-10-14T10:24:19;97439.06;;;15.06;100.00
71889;BME280;59762;49.998;14.858;2022-10-14T10:26:46;97437.66;;;15.21;100.00
71889;BME280;59762;49.998;14.858;2022-10-14T10:29:23;97428.06;;;15.42;100.00
71889;BME280;59762;49.998;14.858;2022-10-14T10:35:53;97426.69;;;15.22;100.00
71889;BME280;59762;49.998;14.858;2022-10-14T10:40:39;97424.91;;;15.11;100.00
71889;BME280;59762;49.998;14.858;2022-10-14T10:49:31;97419.44;;;15.39;100.00
71889;BME280;59762;49.998;14.858;2022-10-14T10:52:01;97412.97;;;15.02;100.00
71889;BME280;59762;49.998;14.858;2022-10-14T10:54:46;97407.03;;;15.17;100.00
71889;BME280;59762;49.998;14.858;2022-10-14T11:00:14;97400.91;;;15.04;100.00
71889;BME280;59762;49.998;14.858;2022-10-14T11:22:43;97380.59;;;14.75;100.00
71889;BME280;59762;49.998;14.858;2022-10-14T11:36:31;97367.66;;;14.43;100.00
71889;BME280;59762;49.998;14.858;2022-10-14T11:44:44;97348.34;;;15.03;100.00
71889;BME280;59762;49.998;14.858;2022-10-14T11:47:18;97349.81;;;14.94;100.00
71889;BME280;59762;49.998;14.858;2022-10-14T11:50:03;97352.81;;;14.81;100.00
71889;BME280;59762;49.998;14.858;2022-10-14T11:52:45;97340.75;;;15.00;100.00
71889;BME280;59762;49.998;14.858;2022-10-14T11:55:19;97332.91;;;15.10;100.00
71889;BME280;59762;49.998;14.858;2022-10-14T11:57:50;97336.38;;;15.11;100.00
71889;BME280;59762;49.998;14.858;2022-10-14T12:00:21;97343.50;;;15.22;100.00
71889;BME280;59762;49.998;14.858;2022-10-14T12:02:54;97333.84;;;15.21;100.00
71889;BME280;59762;49.998;14.858;2022-10-14T12:11:36;97337.59;;;15.20;100.00
71889;BME280;59762;49.998;14.858;2022-10-14T12:14:10;97344.09;;;15.07;100.00
71889;BME280;59762;49.998;14.858;2022-10-14T12:16:42;97333.97;;;14.93;100.00
71889;BME280;59762;49.998;14.858;2022-10-14T12:19:10;97331.03;;;14.77;100.00
71889;BME280;59762;49.998;14.858;2022-10-14T12:22:01;97333.41;;;14.57;100.00
71889;BME280;59762;49.998;14.858;2022-10-14T12:24:34;97337.16;;;14.44;100.00
71889;BME280;59762;49.998;14.858;2022-10-14T12:27:03;97330.88;;;14.22;100.00
71889;BME280;59762;49.998;14.858;2022-10-14T12:29:33;97322.31;;;14.08;100.00
71889;BME280;59762;49.998;14.858;2022-10-14T12:39:47;97321.38;;;14.02;100.00
71889;BME280;59762;49.998;14.858;2022-10-14T12:42:14;97322.09;;;13.98;100.00
71889;BME280;59762;49.998;14.858;2022-10-14T12:47:16;97330.16;;;13.98;100.00
71889;BME280;59762;49.998;14.858;2022-10-14T12:49:47;97327.84;;;13.89;100.00
71889;BME280;59762;49.998;14.858;2022-10-14T12:52:21;97332.88;;;13.86;100.00
71889;BME280;59762;49.998;14.858;2022-10-14T12:54:48;97327.41;;;13.81;100.00
71889;BME280;59762;49.998;14.858;2022-10-14T12:57:35;97330.69;;;13.71;100.00
71889;BME280;59762;49.998;14.858;2022-10-14T13:00:27;97328.06;;;13.59;100.00
71889;BME280;59762;49.998;14.858;2022-10-14T13:02:59;97328.88;;;13.60;100.00
71889;BME280;59762;49.998;14.858;2022-10-14T13:08:25;97332.47;;;13.94;100.00
71889;BME280;59762;49.998;14.858;2022-10-14T13:11:10;97325.50;;;14.22;100.00
71889;BME280;59762;49.998;14.858;2022-10-14T13:21:01;97315.00;;;14.82;100.00
71889;BME280;59762;49.998;14.858;2022-10-14T13:26:09;97311.69;;;14.58;100.00
71889;BME280;59762;49.998;14.858;2022-10-14T13:28:50;97310.31;;;14.56;100.00
71889;BME280;59762;49.998;14.858;2022-10-14T13:39:16;97305.75;;;14.90;100.00
71889;BME280;59762;49.998;14.858;2022-10-14T13:41:42;97300.25;;;14.97;100.00
71889;BME280;59762;49.998;14.858;2022-10-14T13:44:09;97298.41;;;15.19;100.00
71889;BME280;59762;49.998;14.858;2022-10-14T13:46:44;97299.28;;;15.25;100.00
71889;BME280;59762;49.998;14.858;2022-10-14T13:49:22;97300.34;;;15.24;100.00
71889;BME280;59762;49.998;14.858;2022-10-14T13:51:52;97293.59;;;15.21;100.00
71889;BME280;59762;49.998;14.858;2022-10-14T13:54:24;97297.81;;;15.17;100.00
71889;BME280;59762;49.998;14.858;2022-10-14T13:57:08;97291.59;;;15.11;100.00
71889;BME280;59762;49.998;14.858;2022-10-14T13:59:36;97277.66;;;14.76;100.00
71889;BME280;59762;49.998;14.858;2022-10-14T14:02:02;97277.00;;;14.69;100.00
71889;BME280;59762;49.998;14.858;2022-10-14T14:04:33;97276.13;;;14.63;100.00
71889;BME280;59762;49.998;14.858;2022-10-14T14:07:01;97274.38;;;14.40;100.00
71889;BME280;59762;49.998;14.858;2022-10-14T14:09:31;97274.69;;;14.27;100.00
71889;BME280;59762;49.998;14.858;2022-10-14T14:12:01;97271.94;;;14.22;100.00
71889;BME280;59762;49.998;14.858;2022-10-14T14:14:40;97270.47;;;14.14;100.00
71889;BME280;59762;49.998;14.858;2022-10-14T14:17:15;97265.09;;;14.14;100.00
71889;BME280;59762;49.998;14.858;2022-10-14T14:19:43;97264.13;;;14.20;100.00
71889;BME280;59762;49.998;14.858;2022-10-14T14:24:44;97263.59;;;14.35;100.00
71889;BME280;59762;49.998;14.858;2022-10-14T14:27:28;97258.06;;;14.42;100.00
71889;BME280;59762;49.998;14.858;2022-10-14T14:29:54;97256.41;;;14.52;100.00
71889;BME280;59762;49.998;14.858;2022-10-14T14:32:29;97253.53;;;14.59;100.00
71889;BME280;59762;49.998;14.858;2022-10-14T14:34:55;97249.88;;;14.65;100.00
71889;BME280;59762;49.998;14.858;2022-10-14T14:37:26;97252.00;;;14.80;100.00
71889;BME280;59762;49.998;14.858;2022-10-14T14:46:46;97238.16;;;14.88;100.00
71889;BME280;59762;49.998;14.858;2022-10-14T14:49:16;97244.28;;;14.67;100.00
71889;BME280;59762;49.998;14.858;2022-10-14T14:51:42;97244.91;;;14.40;100.00
71889;BME280;59762;49.998;14.858;2022-10-14T14:54:16;97245.63;;;14.19;100.00
71889;BME280;59762;49.998;14.858;2022-10-14T14:56:45;97238.38;;;14.02;100.00
71889;BME280;59762;49.998;14.858;2022-10-14T14:59:31;97240.53;;;13.88;100.00
71889;BME280;59762;49.998;14.858;2022-10-14T15:02:01;97234.53;;;13.81;100.00
71889;BME280;59762;49.998;14.858;2022-10-14T15:04:30;97242.31;;;13.83;100.00
71889;BME280;59762;49.998;14.858;2022-10-14T15:07:02;97243.22;;;13.88;100.00
71889;BME280;59762;49.998;14.858;2022-10-14T15:09:40;97247.03;;;13.93;100.00
71889;BME280;59762;49.998;14.858;2022-10-14T15:17:23;97237.34;;;13.75;100.00
71889;BME280;59762;49.998;14.858;2022-10-14T15:19:49;97248.06;;;13.75;100.00
71889;BME280;59762;49.998;14.858;2022-10-14T15:32:58;97225.97;;;13.39;100.00
71889;BME280;59762;49.998;14.858;2022-10-14T15:35:25;97226.69;;;13.23;100.00
71889;BME280;59762;49.998;14.858;2022-10-14T15:37:51;97228.34;;;13.00;100.00
71889;BME280;59762;49.998;14.858;2022-10-14T15:40:21;97216.53;;;12.84;100.00
71889;BME280;59762;49.998;14.858;2022-10-14T15:42:48;97215.97;;;12.71;100.00